Airfield :
LOGIN :

Register | Disclaimer

   EN    FR    IT 

 










Legend :    VFR   Marginal VFR   IFR   Intensive IFR   Very Intensive IFR
Visi :
Ceiling :
>= 8 km
>= 3000ft
5 to 8 km
1000 to 3000 ft
1500m to 5 km
500 to 1000 ft
800 to 1500m
200 to 500 ft
< 800m
< 200 ft
Symbols :   Thunderstorms  Fog  Heavy snow  Heavy precipitations  Wind > 20 kt
SIGMETs :     Misc.  Thunderstorms  Icing  Turbulence  Mountain Waves  Volcanic Ashes






- Airport Elevation : 72 ft
- IATA code : UDE


EHVK - Volkel Airbase

CURRENT METAR :
  • 250825Z AUTO VRB02KT 6000 BR OVC016 04/01 Q1033 WHT TEMPO 3000 BR

EXPIRED METARs :
  • 250755Z AUTO VRB02KT 6000 BR OVC016 04/01 Q1033 WHT TEMPO 3000 BR
  • 250725Z AUTO VRB02KT 6000 BR OVC016 04/00 Q1033 WHT TEMPO 3000 BR
  • 250706Z AUTO VRB04KT 6000 BR OVC016 04/00 Q1033 WHT TEMPO 3000 BR
  • 250655Z AUTO 08003KT 050V170 6000 BR OVC016 04/00 Q1033 WHT
  • 250642Z AUTO VRB01KT 6000 BR OVC016 03/02 Q1033 WHT
  • 250626Z AUTO 09001KT 5000 BR OVC016 03/02 Q1033 WHT
  • 250625Z AUTO 14001KT 4700 BR OVC015 03/02 Q1033 GRN
  • 250617Z AUTO VRB01KT 4300 BR OVC016 03/02 Q1033 GRN
  • 250555Z AUTO 00000KT 6000 BR OVC016 03/02 Q1033 WHT

TAF TAF EHVK
Valid from the 25 at 06:00 until the 25 at 18:00 UTC


250526Z 2506/2518 VRB02KT 6000 OVC017
TEMPO 2506/2510 3000 BR BKN015
TEMPO 2510/2518 BKN020



MET'MAP, your aeronautical weather chart ! - Copyright ORBIFLY December 2007 - Disclaimer

ORBIFLY MET'MAP TEAM :

Programming & Development : Alexandra Zaïnal
Original concept : Baudouin d'Aumeries
Technical & hardware support : Manuel Goepfert
Assistance : Marc-Olivier Méhu

Contact : metmap@orbifly.com




SOURCES & CREDITS :

   NOAA